createdAt,value
2022-11-24T00:01:09.073Z,20.85
2022-11-24T00:03:36.433Z,19.52
2022-11-24T00:06:11.041Z,19.38
2022-11-24T00:08:39.926Z,15.05
2022-11-24T00:11:16.522Z,18.98
2022-11-24T00:13:44.429Z,18.90
2022-11-24T00:16:12.732Z,20.90
2022-11-24T00:18:41.917Z,19.75
2022-11-24T00:21:08.866Z,20.52
2022-11-24T00:23:36.840Z,21.63
2022-11-24T00:26:05.645Z,21.80
2022-11-24T00:28:34.124Z,17.15
2022-11-24T00:31:01.723Z,23.48
2022-11-24T00:33:28.699Z,24.02
2022-11-24T00:35:59.893Z,24.92
2022-11-24T00:38:27.363Z,23.70
2022-11-24T00:40:54.354Z,18.27
2022-11-24T00:43:21.161Z,21.02
2022-11-24T00:45:48.078Z,23.27
2022-11-24T00:48:15.374Z,17.98
2022-11-24T00:50:42.369Z,20.15
2022-11-24T00:53:10.427Z,18.25
2022-11-24T00:55:37.215Z,22.30
2022-11-24T00:58:03.952Z,17.25
2022-11-24T01:00:30.730Z,15.38
2022-11-24T01:02:57.583Z,17.25
2022-11-24T01:05:24.372Z,16.45
2022-11-24T01:07:51.584Z,17.73
2022-11-24T01:14:09.365Z,16.67
2022-11-24T01:16:36.246Z,18.02
2022-11-24T01:19:04.046Z,23.33
2022-11-24T01:21:30.825Z,19.30
2022-11-24T01:23:58.079Z,19.27
2022-11-24T01:26:24.840Z,24.40
2022-11-24T01:28:57.282Z,16.33
2022-11-24T01:31:25.927Z,18.83
2022-11-24T01:33:53.523Z,15.35
2022-11-24T01:36:21.079Z,16.48
2022-11-24T01:38:48.073Z,20.00
2022-11-24T01:41:21.867Z,21.88
2022-11-24T01:43:49.906Z,17.42
2022-11-24T01:46:45.168Z,14.73
2022-11-24T01:49:18.245Z,14.63
2022-11-24T01:52:09.296Z,13.68
2022-11-24T01:54:42.423Z,21.60
2022-11-24T01:57:32.326Z,19.50
2022-11-24T02:00:09.971Z,17.77
2022-11-24T02:06:31.770Z,26.85
2022-11-24T02:09:06.396Z,26.42
2022-11-24T02:11:40.045Z,23.27
2022-11-24T02:14:10.850Z,18.60
2022-11-24T02:16:39.748Z,16.75
2022-11-24T02:19:18.778Z,20.73
2022-11-24T02:21:45.898Z,19.50
2022-11-24T02:24:29.315Z,18.00
2022-11-24T02:26:56.222Z,17.30
2022-11-24T02:29:23.210Z,16.88
2022-11-24T02:32:01.207Z,18.15
2022-11-24T02:34:28.116Z,22.95
2022-11-24T02:36:54.894Z,14.23
2022-11-24T02:39:21.693Z,14.20
2022-11-24T02:42:16.520Z,17.38
2022-11-24T02:44:49.731Z,19.07
2022-11-24T02:47:17.172Z,27.90
2022-11-24T02:49:43.966Z,28.50
2022-11-24T02:52:10.962Z,19.33
2022-11-24T02:54:37.836Z,17.42
2022-11-24T02:57:04.861Z,26.55
2022-11-24T02:59:31.965Z,23.35
2022-11-24T03:01:58.785Z,18.90
2022-11-24T03:04:25.613Z,26.45
2022-11-24T03:06:52.507Z,28.08
2022-11-24T03:09:19.576Z,28.48
2022-11-24T03:11:46.475Z,22.00
2022-11-24T03:14:13.235Z,26.40
2022-11-24T03:16:40.176Z,26.48
2022-11-24T03:19:07.034Z,21.85
2022-11-24T03:21:33.794Z,36.42
2022-11-24T03:24:00.559Z,21.50
2022-11-24T03:26:28.078Z,23.00
2022-11-24T03:28:57.388Z,27.23
2022-11-24T03:31:24.755Z,28.95
2022-11-24T03:33:51.937Z,22.75
2022-11-24T03:36:19.131Z,23.40
2022-11-24T03:38:45.994Z,26.48
2022-11-24T03:41:12.935Z,23.20
2022-11-24T03:43:43.744Z,29.55
2022-11-24T03:46:12.422Z,23.63
2022-11-24T03:48:39.915Z,23.92
2022-11-24T03:51:07.678Z,18.65
2022-11-24T03:53:34.806Z,22.98
2022-11-24T03:56:02.598Z,24.60
2022-11-24T03:58:30.633Z,30.33
2022-11-24T04:00:58.198Z,25.80
2022-11-24T04:03:25.435Z,21.35
2022-11-24T04:05:52.343Z,30.33
2022-11-24T04:08:19.689Z,19.35
2022-11-24T04:10:51.540Z,34.75
2022-11-24T04:13:22.735Z,30.65
2022-11-24T04:15:49.888Z,29.02
2022-11-24T04:18:16.844Z,23.02
2022-11-24T04:20:43.860Z,21.10
2022-11-24T04:23:11.684Z,25.55
2022-11-24T04:25:39.288Z,29.13
2022-11-24T04:28:06.069Z,31.02
2022-11-24T04:30:32.969Z,30.67
2022-11-24T04:32:59.749Z,34.63
2022-11-24T04:35:26.775Z,17.83
2022-11-24T04:37:53.570Z,28.33
2022-11-24T04:40:20.691Z,32.53
2022-11-24T04:42:55.384Z,25.33
2022-11-24T04:45:23.592Z,25.02
2022-11-24T04:47:50.474Z,24.63
2022-11-24T04:50:18.285Z,28.70
2022-11-24T04:52:45.487Z,28.80
2022-11-24T04:55:12.545Z,26.70
2022-11-24T04:57:39.839Z,27.00
2022-11-24T05:00:10.586Z,24.15
2022-11-24T05:02:38.015Z,28.40
2022-11-24T05:05:06.539Z,36.10
2022-11-24T05:07:33.811Z,36.17
2022-11-24T05:10:18.946Z,26.02
2022-11-24T05:12:51.059Z,36.15
2022-11-24T05:15:18.266Z,34.05
2022-11-24T05:17:45.186Z,31.83
2022-11-24T05:20:12.173Z,35.47
2022-11-24T05:22:38.970Z,31.15
2022-11-24T05:25:06.076Z,28.35
2022-11-24T05:27:32.818Z,34.10
2022-11-24T05:29:59.958Z,30.40
2022-11-24T05:32:26.771Z,33.95
2022-11-24T05:34:54.903Z,30.05
2022-11-24T05:37:21.999Z,39.00
2022-11-24T05:39:48.786Z,36.60
2022-11-24T05:42:34.021Z,32.90
2022-11-24T05:47:27.598Z,39.33
2022-11-24T05:49:54.384Z,34.95
2022-11-24T05:52:21.466Z,38.95
2022-11-24T05:54:49.002Z,41.80
2022-11-24T05:57:17.726Z,41.35
2022-11-24T05:59:44.918Z,42.30
2022-11-24T06:02:12.185Z,28.45
2022-11-24T06:04:39.148Z,47.15
2022-11-24T06:07:12.791Z,37.03
2022-11-24T06:09:41.306Z,43.38
2022-11-24T06:12:09.781Z,46.13
2022-11-24T06:14:37.214Z,39.85
2022-11-24T06:17:05.806Z,40.53
2022-11-24T06:19:32.699Z,32.72
2022-11-24T06:21:59.483Z,39.45
2022-11-24T06:24:26.415Z,37.08
2022-11-24T06:26:53.290Z,38.90
2022-11-24T06:29:20.101Z,41.28
2022-11-24T06:31:46.919Z,40.25
2022-11-24T06:34:14.092Z,37.33
2022-11-24T06:36:40.896Z,39.13
2022-11-24T06:39:08.269Z,35.38
2022-11-24T06:41:35.101Z,36.22
2022-11-24T06:44:05.464Z,24.77
2022-11-24T06:46:32.569Z,54.38
2022-11-24T06:49:00.114Z,45.97
2022-11-24T06:51:27.854Z,37.65
2022-11-24T06:53:55.130Z,39.80
2022-11-24T06:56:22.342Z,44.72
2022-11-24T06:58:52.571Z,40.83
2022-11-24T07:01:28.053Z,36.53
2022-11-24T07:03:56.750Z,36.20
2022-11-24T07:06:25.884Z,35.75
2022-11-24T07:08:53.167Z,59.08
2022-11-24T07:11:24.335Z,38.20
2022-11-24T07:13:56.695Z,43.03
2022-11-24T07:16:27.734Z,47.10
2022-11-24T07:18:55.728Z,42.67
2022-11-24T07:21:24.950Z,51.10
2022-11-24T07:23:54.057Z,44.72
2022-11-24T07:26:21.968Z,45.08
2022-11-24T07:28:49.331Z,52.38
2022-11-24T07:31:19.205Z,54.55
2022-11-24T07:33:54.385Z,47.67
2022-11-24T07:36:22.481Z,44.97
2022-11-24T07:38:52.438Z,49.53
2022-11-24T07:41:21.188Z,48.63
2022-11-24T07:43:49.504Z,50.65
2022-11-24T07:46:19.542Z,53.85
2022-11-24T07:48:47.053Z,56.35
2022-11-24T07:51:13.980Z,57.58
2022-11-24T07:53:40.827Z,56.60
2022-11-24T07:56:09.205Z,54.10
2022-11-24T07:58:37.982Z,59.05
2022-11-24T08:01:17.216Z,47.10
2022-11-24T08:03:45.927Z,48.10
2022-11-24T08:06:36.185Z,47.35
2022-11-24T08:09:01.152Z,57.70
2022-11-24T08:11:28.412Z,48.92
2022-11-24T08:13:55.320Z,57.67
2022-11-24T08:16:22.607Z,58.67
2022-11-24T08:18:52.660Z,54.00
2022-11-24T08:21:20.186Z,67.80
2022-11-24T08:23:47.431Z,52.10
2022-11-24T08:26:19.569Z,63.78
2022-11-24T08:28:48.026Z,54.95
2022-11-24T08:31:18.994Z,48.97
2022-11-24T08:33:46.671Z,50.88
2022-11-24T08:36:19.666Z,58.83
2022-11-24T08:38:46.844Z,48.72
2022-11-24T08:41:16.778Z,51.45
2022-11-24T08:43:46.524Z,54.40
2022-11-24T08:46:19.357Z,50.08
2022-11-24T08:48:52.563Z,47.38
2022-11-24T08:51:23.391Z,48.95
2022-11-24T08:53:58.783Z,44.78
2022-11-24T08:56:27.573Z,57.75
2022-11-24T08:58:55.946Z,54.55
2022-11-24T09:01:23.760Z,45.25
2022-11-24T09:03:51.780Z,50.85
2022-11-24T09:06:23.184Z,53.75
2022-11-24T09:08:50.442Z,51.95
2022-11-24T09:11:18.774Z,40.20
2022-11-24T09:13:46.307Z,55.65
2022-11-24T09:16:20.537Z,44.30
2022-11-24T09:18:48.299Z,34.72
2022-11-24T09:21:20.184Z,46.33
2022-11-24T09:23:52.747Z,47.20
2022-11-24T09:26:24.753Z,45.45
2022-11-24T09:28:55.781Z,50.35
2022-11-24T09:31:26.598Z,51.60
2022-11-24T09:33:54.634Z,46.95
2022-11-24T09:36:22.274Z,65.70
2022-11-24T09:38:49.680Z,54.33
2022-11-24T09:41:54.633Z,52.15
2022-11-24T09:45:13.726Z,59.92
2022-11-24T09:47:49.738Z,51.13
2022-11-24T09:50:20.999Z,57.85
2022-11-24T09:53:12.178Z,52.45
2022-11-24T09:55:46.777Z,47.17
2022-11-24T09:58:53.650Z,48.80
2022-11-24T10:01:27.922Z,57.25
2022-11-24T10:03:56.943Z,42.63
2022-11-24T10:06:32.112Z,57.67
2022-11-24T10:09:36.361Z,46.50
2022-11-24T10:12:40.186Z,50.50
2022-11-24T10:15:44.707Z,50.85
2022-11-24T10:18:56.958Z,46.03
2022-11-24T10:21:37.542Z,54.25
2022-11-24T10:24:48.093Z,56.47
2022-11-24T10:27:22.442Z,51.72
2022-11-24T10:29:53.321Z,52.15
2022-11-24T10:32:27.064Z,55.83
2022-11-24T10:34:56.246Z,56.97
2022-11-24T10:37:37.597Z,49.95
2022-11-24T10:40:55.386Z,55.05
2022-11-24T10:43:14.114Z,51.83
2022-11-24T10:45:41.415Z,54.25
2022-11-24T10:48:26.636Z,47.63
2022-11-24T10:51:01.323Z,50.90
2022-11-24T10:53:31.611Z,39.80
2022-11-24T10:56:05.172Z,45.72
2022-11-24T10:58:38.093Z,51.05
2022-11-24T11:01:14.518Z,49.75
2022-11-24T11:03:56.683Z,55.58
2022-11-24T11:06:29.626Z,57.67
2022-11-24T11:09:08.873Z,50.72
2022-11-24T11:11:39.362Z,49.85
2022-11-24T11:14:13.079Z,47.80
2022-11-24T11:16:40.083Z,44.80
2022-11-24T11:19:49.745Z,48.75
2022-11-24T11:22:37.031Z,50.97
2022-11-24T11:25:08.150Z,45.03
2022-11-24T11:27:34.909Z,51.58
2022-11-24T11:36:16.164Z,45.25
2022-11-24T11:38:44.361Z,46.22
2022-11-24T11:41:22.111Z,55.08
2022-11-24T11:43:57.639Z,46.72
2022-11-24T11:46:26.878Z,49.78
2022-11-24T11:48:53.995Z,47.03
2022-11-24T11:51:59.508Z,47.63
2022-11-24T11:54:42.507Z,46.22
2022-11-24T11:57:47.331Z,46.15
2022-11-24T12:00:22.123Z,54.33
2022-11-24T12:03:17.349Z,40.53
2022-11-24T12:06:30.425Z,39.28
2022-11-24T12:09:24.176Z,43.03
2022-11-24T12:12:35.543Z,48.88
2022-11-24T12:15:37.848Z,42.60
2022-11-24T12:19:20.423Z,44.17
2022-11-24T12:22:05.190Z,43.25
2022-11-24T12:25:06.063Z,29.50
2022-11-24T12:27:47.386Z,43.47
2022-11-24T12:30:19.029Z,41.08
2022-11-24T12:33:19.074Z,37.05
2022-11-24T12:35:49.362Z,38.53
2022-11-24T12:38:49.894Z,40.13
2022-11-24T12:41:43.593Z,42.08
2022-11-24T12:44:50.414Z,27.63
2022-11-24T12:47:29.988Z,37.08
2022-11-24T12:50:10.888Z,36.65
2022-11-24T12:53:22.200Z,33.45
2022-11-24T12:55:49.658Z,42.83
2022-11-24T12:58:41.108Z,41.33
2022-11-24T13:01:23.170Z,33.05
2022-11-24T13:04:27.123Z,38.33
2022-11-24T13:06:53.841Z,38.92
2022-11-24T13:09:20.980Z,29.58
2022-11-24T13:11:51.590Z,33.78
2022-11-24T13:14:38.192Z,33.15
2022-11-24T13:17:33.757Z,32.97
2022-11-24T13:20:21.728Z,36.85
2022-11-24T13:22:58.559Z,28.33
2022-11-24T13:25:34.503Z,37.70
2022-11-24T13:28:04.080Z,37.13
2022-11-24T13:30:34.120Z,37.30
2022-11-24T13:33:30.724Z,35.80
2022-11-24T13:36:04.265Z,28.70
2022-11-24T13:38:46.165Z,30.58
2022-11-24T13:41:33.265Z,34.28
2022-11-24T13:44:15.348Z,31.23
2022-11-24T13:47:26.431Z,36.03
2022-11-24T13:49:53.482Z,38.08
2022-11-24T13:52:38.842Z,41.95
2022-11-24T13:55:11.870Z,33.92
2022-11-24T13:57:42.238Z,34.20
2022-11-24T14:00:34.102Z,34.97
2022-11-24T14:03:13.525Z,13.95
2022-11-24T14:05:49.365Z,8.13
2022-11-24T14:08:38.505Z,7.53
2022-11-24T14:11:15.543Z,5.70
2022-11-24T14:13:42.310Z,8.88
2022-11-24T14:16:09.143Z,8.30
2022-11-24T14:18:39.007Z,7.68
2022-11-24T14:21:37.503Z,5.85
2022-11-24T14:24:25.670Z,8.70
2022-11-24T14:26:52.827Z,6.35
2022-11-24T14:29:24.959Z,11.23
2022-11-24T14:31:59.070Z,11.60
2022-11-24T14:34:28.996Z,6.20
2022-11-24T14:36:57.975Z,7.57
2022-11-24T14:39:27.451Z,9.38
2022-11-24T14:42:27.929Z,7.32
2022-11-24T14:45:01.182Z,7.05
2022-11-24T14:47:37.872Z,11.07
2022-11-24T14:50:16.225Z,8.68
2022-11-24T14:52:54.185Z,5.70
2022-11-24T14:55:29.923Z,8.85
2022-11-24T14:57:58.497Z,10.95
2022-11-24T15:00:29.976Z,7.47
2022-11-24T15:03:17.308Z,9.90
2022-11-24T15:05:51.557Z,10.07
2022-11-24T15:08:18.682Z,8.23
2022-11-24T15:10:46.401Z,13.65
2022-11-24T15:13:23.846Z,9.07
2022-11-24T15:16:00.532Z,9.77
2022-11-24T15:18:48.673Z,12.07
2022-11-24T15:21:19.502Z,9.93
2022-11-24T15:24:07.476Z,11.63
2022-11-24T15:26:40.012Z,11.63
2022-11-24T15:29:09.829Z,10.50
2022-11-24T15:31:37.376Z,8.88
2022-11-24T15:34:04.593Z,6.07
2022-11-24T15:36:31.563Z,9.52
2022-11-24T15:38:58.289Z,8.65
2022-11-24T15:41:31.171Z,9.32
2022-11-24T15:44:01.363Z,11.70
2022-11-24T15:46:30.556Z,11.65
2022-11-24T15:48:57.483Z,10.82
2022-11-24T15:51:27.039Z,8.57
2022-11-24T15:54:00.638Z,9.68
2022-11-24T15:56:35.819Z,6.18
2022-11-24T15:59:03.856Z,10.07
2022-11-24T16:01:33.771Z,10.38
2022-11-24T16:04:02.163Z,13.18
2022-11-24T16:06:29.189Z,10.50
2022-11-24T16:08:57.756Z,15.13
2022-11-24T16:11:25.016Z,11.45
2022-11-24T16:13:53.728Z,9.15
2022-11-24T16:16:23.227Z,13.18
2022-11-24T16:18:50.247Z,13.68
2022-11-24T16:21:17.092Z,13.57
2022-11-24T16:23:43.851Z,15.75
2022-11-24T16:26:11.364Z,13.98
2022-11-24T16:28:38.134Z,18.88
2022-11-24T16:31:04.935Z,14.90
2022-11-24T16:33:31.808Z,13.80
2022-11-24T16:35:58.880Z,17.33
2022-11-24T16:38:25.671Z,16.77
2022-11-24T16:40:54.725Z,12.57
2022-11-24T16:43:21.583Z,16.10
2022-11-24T16:46:09.579Z,17.45
2022-11-24T16:48:37.243Z,11.25
2022-11-24T16:51:10.212Z,17.33
2022-11-24T16:53:38.205Z,16.17
2022-11-24T16:56:05.747Z,15.18
2022-11-24T16:58:32.665Z,18.50
2022-11-24T17:01:07.802Z,25.33
2022-11-24T17:03:37.551Z,13.90
2022-11-24T17:06:07.386Z,17.02
2022-11-24T17:08:36.578Z,25.23
2022-11-24T17:11:29.955Z,16.27
2022-11-24T17:13:58.538Z,15.75
2022-11-24T17:16:27.272Z,15.13
2022-11-24T17:18:54.668Z,21.98
2022-11-24T17:21:27.616Z,17.20
2022-11-24T17:24:00.435Z,20.02
2022-11-24T17:26:28.537Z,18.90
2022-11-24T17:28:56.386Z,15.60
2022-11-24T17:31:29.384Z,17.90
2022-11-24T17:33:58.978Z,22.50
2022-11-24T17:36:27.814Z,17.58
2022-11-24T17:38:54.597Z,20.25
2022-11-24T17:41:22.384Z,19.85
2022-11-24T17:43:51.136Z,23.65
2022-11-24T17:46:18.219Z,26.25
2022-11-24T17:48:45.093Z,19.60
2022-11-24T17:51:20.584Z,24.77
2022-11-24T17:53:49.899Z,26.58
2022-11-24T17:56:26.427Z,18.00
2022-11-24T17:59:00.685Z,25.80
2022-11-24T18:01:32.567Z,24.05
2022-11-24T18:03:59.585Z,21.45
2022-11-24T18:06:29.076Z,29.30
2022-11-24T18:08:57.824Z,22.98
2022-11-24T18:11:31.383Z,19.33
2022-11-24T18:14:03.125Z,23.60
2022-11-24T18:16:34.981Z,20.95
2022-11-24T18:19:09.360Z,20.30
2022-11-24T18:24:05.702Z,21.10
2022-11-24T18:26:32.473Z,21.23
2022-11-24T18:28:59.360Z,29.73
2022-11-24T18:31:26.489Z,27.48
2022-11-24T18:33:53.296Z,21.58
2022-11-24T18:36:28.373Z,28.17
2022-11-24T18:38:57.510Z,17.45
2022-11-24T18:41:24.674Z,27.58
2022-11-24T18:43:51.527Z,21.42
2022-11-24T18:46:19.132Z,25.15
2022-11-24T18:48:46.242Z,26.00
2022-11-24T18:51:16.689Z,22.33
2022-11-24T18:53:46.077Z,36.13
2022-11-24T18:56:16.996Z,31.25
2022-11-24T18:58:44.911Z,32.95
2022-11-24T19:01:17.959Z,27.80
2022-11-24T19:03:49.316Z,27.75
2022-11-24T19:06:24.049Z,31.38
2022-11-24T19:08:54.859Z,26.52
2022-11-24T19:11:35.471Z,29.08
2022-11-24T19:14:04.615Z,29.10
2022-11-24T19:16:31.835Z,25.85
2022-11-24T19:19:00.417Z,26.83
2022-11-24T19:21:28.775Z,29.10
2022-11-24T19:23:59.806Z,28.60
2022-11-24T19:26:30.145Z,28.17
2022-11-24T19:28:56.953Z,20.10
2022-11-24T19:31:23.826Z,22.65
2022-11-24T19:33:52.988Z,25.60
2022-11-24T19:36:21.729Z,27.38
2022-11-24T19:38:57.099Z,33.33
2022-11-24T19:41:28.077Z,35.33
2022-11-24T19:43:55.335Z,23.10
2022-11-24T19:46:26.375Z,36.03
2022-11-24T19:48:56.230Z,21.55
2022-11-24T19:51:26.661Z,25.67
2022-11-24T19:53:54.329Z,27.25
2022-11-24T19:56:24.478Z,29.73
2022-11-24T19:58:52.270Z,26.92
2022-11-24T20:01:25.987Z,29.13
2022-11-24T20:04:02.478Z,21.75
2022-11-24T20:06:33.890Z,23.10
2022-11-24T20:09:01.764Z,26.00
2022-11-24T20:11:29.640Z,27.25
2022-11-24T20:13:57.435Z,34.78
2022-11-24T20:16:30.951Z,28.90
2022-11-24T20:19:10.969Z,32.05
2022-11-24T20:21:39.892Z,25.73
2022-11-24T20:24:15.796Z,26.38
2022-11-24T20:26:49.852Z,23.02
2022-11-24T20:29:17.421Z,21.20
2022-11-24T20:31:50.864Z,30.13
2022-11-24T20:34:19.075Z,40.95
2022-11-24T20:36:47.804Z,30.67
2022-11-24T20:39:25.599Z,26.58
2022-11-24T20:41:54.240Z,34.13
2022-11-24T20:44:22.869Z,29.02
2022-11-24T20:46:50.009Z,33.28
2022-11-24T20:49:20.509Z,31.95
2022-11-24T20:51:47.938Z,39.47
2022-11-24T20:54:18.268Z,38.22
2022-11-24T20:56:46.800Z,36.92
2022-11-24T20:59:18.446Z,46.97
2022-11-24T21:01:46.838Z,35.90
2022-11-24T21:04:19.766Z,29.08
2022-11-24T21:06:47.841Z,38.45
2022-11-24T21:09:15.063Z,37.03
2022-11-24T21:11:42.822Z,31.92
2022-11-24T21:14:10.435Z,45.45
2022-11-24T21:16:40.575Z,41.58
2022-11-24T21:19:12.695Z,40.50
2022-11-24T21:21:42.981Z,45.20
2022-11-24T21:24:18.980Z,43.38
2022-11-24T21:26:50.553Z,28.70
2022-11-24T21:29:19.368Z,35.95
2022-11-24T21:31:46.431Z,37.47
2022-11-24T21:34:18.705Z,33.50
2022-11-24T21:36:45.957Z,37.25
2022-11-24T21:39:14.958Z,41.85
2022-11-24T21:41:42.706Z,28.95
2022-11-24T21:44:12.434Z,37.03
2022-11-24T21:46:45.016Z,32.08
2022-11-24T21:49:16.319Z,37.38
2022-11-24T21:51:43.275Z,31.75
2022-11-24T21:54:10.083Z,41.38
2022-11-24T21:56:36.885Z,32.40
2022-11-24T21:59:03.739Z,35.50
2022-11-24T22:01:30.555Z,38.72
2022-11-24T22:03:57.792Z,32.40
2022-11-24T22:06:24.583Z,33.08
2022-11-24T22:08:51.466Z,39.05
2022-11-24T22:11:22.742Z,37.33
2022-11-24T22:13:51.190Z,35.95
2022-11-24T22:16:23.628Z,40.28
2022-11-24T22:18:51.176Z,35.15
2022-11-24T22:21:23.912Z,28.55
2022-11-24T22:23:52.677Z,32.10
2022-11-24T22:26:22.296Z,26.15
2022-11-24T22:28:49.741Z,41.08
2022-11-24T22:31:23.019Z,41.25
2022-11-24T22:33:51.392Z,28.92
2022-11-24T22:36:23.425Z,28.38
2022-11-24T22:38:56.022Z,26.92
2022-11-24T22:41:23.577Z,22.17
2022-11-24T22:43:50.443Z,32.35
2022-11-24T22:46:20.842Z,27.05
2022-11-24T22:48:49.868Z,28.02
2022-11-24T22:51:20.420Z,26.35
2022-11-24T22:53:53.137Z,22.80
2022-11-24T22:56:20.595Z,19.73
2022-11-24T22:58:47.855Z,18.17
2022-11-24T23:01:21.289Z,32.72
2022-11-24T23:03:49.118Z,26.25
2022-11-24T23:06:25.194Z,28.08
2022-11-24T23:08:53.475Z,24.15
2022-11-24T23:11:32.706Z,23.23
2022-11-24T23:14:02.365Z,30.67
2022-11-24T23:16:30.344Z,28.08
2022-11-24T23:18:58.060Z,23.92
2022-11-24T23:21:28.993Z,23.95
2022-11-24T23:23:58.097Z,26.42
2022-11-24T23:26:40.158Z,20.15
2022-11-24T23:29:07.817Z,27.35
2022-11-24T23:31:34.997Z,19.33
2022-11-24T23:34:04.296Z,17.58
2022-11-24T23:36:32.592Z,22.13
2022-11-24T23:39:06.603Z,21.30
2022-11-24T23:41:33.496Z,16.15
2022-11-24T23:44:00.887Z,21.95
2022-11-24T23:46:28.335Z,21.40
2022-11-24T23:48:56.174Z,26.33
2022-11-24T23:51:31.178Z,24.70
2022-11-24T23:56:33.125Z,24.83
2022-11-24T23:59:01.854Z,21.00
